AirNav  
 
 1480 users online  

54T RWJ Airpark
Baytown, Texas, USA

GOING TO BAYTOWN?


FAA INFORMATION EFFECTIVE 07 DECEMBER 2017

Location

FAA Identifier: 54T
Lat/Long: 29-45-42.8200N / 094-50-52.5800W
29-45.713667N / 094-50.876333W
29.7618944 / -94.8479389
(estimated)
Elevation: 33 ft. / 10 m (estimated)
Variation: 05E (1985)
From city: 7 miles E of BAYTOWN, TX
Time zone: UTC -6 (UTC -5 during Daylight Saving Time)
Zip code: 77520

Airport Operations

Airport use: Open to the public
Activation date: 02/1977
Control tower: no
ARTCC: HOUSTON CENTER
FSS: MONTGOMERY COUNTY FLIGHT SERVICE STATION
NOTAMs facility: CXO (NOTAM-D service available)
Attendance: MON-FRI 0800-1800
Wind indicator: yes
Segmented circle: no
Lights: SS-SR
Beacon: white-green (lighted land airport)
Operates sunset to sunrise.

Airport Communications

CTAF/UNICOM: 122.7
HOUSTON APPROACH: 134.45
HOUSTON DEPARTURE: 134.45
BORRN DP: 134.45
DREMR DP: 134.45
INDIE DP: 134.45
KARRR DP: 134.45
LURIC DP: 134.45
MMALT DP: 134.45
STRYA DP: 134.45
STYCK DP: 134.45
WATFO DP: 134.45
WYLSN DP: 134.45

Nearby radio navigation aids

VOR radial/distance  VOR name  Freq  Var
MHFr331/14.0TRINITY VOR/DME113.6007E
HUBr069/23.2HOBBY VOR/DME117.1005E
DASr197/27.8DAISETTA VORTAC116.9005E
IAHr109/28.4HUMBLE VORTAC116.6005E
VUHr356/29.6SCHOLES VOR/DME113.0006E

 
NDB name  Hdg/Dist  Freq  Var  ID
SANJAC059/12.934705EJPA .--- .--. .-
NIXIN121/23.632605EBVP -... ...- .--.
GALVESTON341/26.120608EGLS --. .-.. ...
GOODHUE234/37.936807EGDE --. -.. .

Airport Services

Fuel available: 100LL JET-A
Parking: hangars and tiedowns
Airframe service: NONE
Powerplant service: NONE

Runway Information

Runway 8/26

Dimensions: 5035 x 40 ft. / 1535 x 12 m
EAST 1100 FT 60 FT WIDE.
Surface: asphalt, in fair condition
Weight bearing capacity: 
Single wheel: 6.0
Runway edge lights: low intensity
LIRL LCTD 15 FT FM RY EDGE WEST 3935 FT.
Runway edge markings: RY 08/26 NRS 35 FT TALL; THLD BAR 15 INCHES WIDE; DSPLCD THLD MKGS NSTD.
RUNWAY 8  RUNWAY 26
Latitude: 29-45.692283N29-45.706400N
Longitude: 094-51.266617W094-50.314733W
Elevation: 29.8 ft.26.7 ft.
Traffic pattern: leftleft
Runway heading: 084 magnetic, 089 true264 magnetic, 269 true
Displaced threshold: no939 ft.
Markings: NSTD, in fair conditionNSTD, in fair condition
Touchdown point: yes, no lightsyes, no lights
Obstructions: 18 ft. bldg, 300 ft. from runway, 168 ft. left of centerline, 5:1 slope to clear75 ft. tower, 650 ft. from runway, 100 ft. left of centerline, 6:1 slope to clear
+15 FT RD 0-200 FT FM THLD 60 FT R CNTRLN; +4 FT FENCE 0-200 FT FM THLD 92 FT R CNTRLN.

Runway 14/32

Dimensions: 3532 x 100 ft. / 1077 x 30 m
Surface: turf, in fair condition
Weight bearing capacity: 
Single wheel: 4.0
RUNWAY 14  RUNWAY 32
Latitude: 29-45.980100N29-45.488450N
Longitude: 094-51.178733W094-50.820383W
Elevation: 33.0 ft.28.0 ft.
Traffic pattern: leftleft
Runway heading: 143 magnetic, 148 true323 magnetic, 328 true
Touchdown point: no, no lightsyes, no lights
Obstructions: 15 ft. road, 50 ft. left of centerline
APCH RATIO 16:1 FM DSPLCD THLD OVER 51 FT TREES, 837 FT DSTC, 95 FT R.
35 ft. trees, 125 ft. from runway, 3:1 slope to clear

Airport Ownership and Management from official FAA records

Ownership: Privately-owned
Owner: RWP PROPERTY OWNERS ASSOCIATION
15814 SUNDOWNER
MOUNT BELVIEU, TX 77580
Phone (281) 573-9609
Manager: JIM MOORE
15814 SUNDOWNER
BAYTOWN, TX 77520
Phone (281) 573-9609

Airport Operational Statistics

Aircraft based on the field: 45
Single engine airplanes: 30
Multi engine airplanes: 3
Ultralights: 12
    
Aircraft operations: avg 25/day *
68% local general aviation
32% transient general aviation
* for 12-month period ending 31 December 2016

Additional Remarks

TWY TOO NARROW FOR SOME ACFT USE EXTREME CARE. TWIN ENGINE ACFT PROHIBIT ON TWY.
FOR ARPT COND & SERVICES CALL 281-383-2320.
RY 08 28 FT PLINE (MKD & LIGHTED), 468 FT FM RWY END
FOR CD CTC HOUSTON APCH AT 281-443-5844 TO CNL IFR CALL 281-443-5888.

Instrument Procedures

NOTE: All procedures below are presented as PDF files. If you need a reader for these files, you should download the free Adobe Reader.

NOT FOR NAVIGATION. Please procure official charts for flight.
FAA instrument procedures published for use between 7 December 2017 at 0901Z and 4 January 2018 at 0900Z.

 
STARs - Standard Terminal Arrivals
BLUBELL THREE   download (295KB)
CESAN FOUR (RNAV)   2 pages: [1] [2] (359KB)
HUDZY THREE   2 pages: [1] [2] (327KB)
OHIIO FOUR   download (294KB)
TCHDN TWO   2 pages: [1] [2] (357KB)
TKNIQ TWO (RNAV)   2 pages: [1] [2] (285KB)
WAPPL FOUR (RNAV)   2 pages: [1] [2] (380KB)
WAPPL FOUR (RNAV), CONT.2   download (264KB)
 
IAPs - Instrument Approach Procedures
RNAV (GPS) RWY 26   download (178KB)
RNAV (GPS) RWY 32   download (149KB)
 
Departure Procedures
BLTWY FOUR (RNAV)   2 pages: [1] [2] (427KB)
BORRN THREE (RNAV)   2 pages: [1] [2] (523KB)
HOODO FIVE (RNAV)   2 pages: [1] [2] (481KB)
INDIE FIVE (RNAV)   2 pages: [1] [2] (450KB)
KARRR FOUR (RNAV)   2 pages: [1] [2] (470KB)
LURIC FIVE (RNAV)   2 pages: [1] [2] (471KB)
MMALT THREE (RNAV)   2 pages: [1] [2] (487KB)
STRYA FIVE (RNAV)   2 pages: [1] [2] (458KB)
STYCK FIVE (RNAV)   2 pages: [1] [2] (453KB)
WATFO FOUR (RNAV)   2 pages: [1] [2] (432KB)
WYLSN FIVE (RNAV)   2 pages: [1] [2] (440KB)
NOTE: Special Take-Off Minimums/Departure Procedures apply   download

Other nearby airports with instrument procedures:

KHPY - Baytown Airport (6 nm W)
T00 - Chambers County Airport (10 nm E)
T41 - La Porte Municipal Airport (13 nm SW)
KEFD - Ellington Airport (19 nm SW)
T78 - Liberty Municipal Airport (20 nm N)
 
Loc | Ops | Rwys | IFR | FBO | Links
Com | Nav | Svcs | Stats | Notes


 
Area around 54T (RWJ Airpark)
 
Road maps at: MapQuest Bing Google
 
Aerial photo
WARNING: Photo may not be current or correct
Aerial photo of 54T (RWJ Airpark)
Photo taken 20-Mar-2008

Do you have a better or more recent aerial photo of RWJ Airpark that you would like to share? If so, please send us your photo.

 
Sectional chart

 
Airport distance calculator
Flying to RWJ Airpark? Find the distance to fly.

From to 54T

Sunrise and sunset
Times for 18-Dec-2017
 Local
(UTC-6)
 Zulu
(UTC)
Morning civil twilight06:4412:44
Sunrise07:1013:10
Sunset17:2223:22
Evening civil twilight17:4823:48

Current date and time
Zulu (UTC)  18-Dec-2017 16:17:47
Local (UTC-6)  18-Dec-2017 10:17:47
 
METAR
KEFD 
19nm SW 
181550Z 03006KT 10SM BKN030 OVC045 18/14 A3021
KHOU 
24nm W 
181553Z 05006KT 10SM OVC018 18/15 A3019 RMK AO2 SLP229 T01780150
KLVJ 
26nm SW 
181553Z AUTO 06006KT 8SM BKN017 BKN028 BKN060 18/16 A3020 RMK AO2 SLP227 T01780156
KGLS 
30nm S 
181552Z 36007KT 10SM BKN014 BKN110 20/17 A3019 RMK AO2 RAB26E42 SLP222 P0000 T02000172
KIAH 
31nm NW 
181553Z 07005KT 10SM SCT025 BKN038 OVC055 17/14 A3019 RMK AO2 SLP223 T01670139
KAXH 
36nm SW 
181555Z AUTO 07005KT 10SM OVC015 17/15 A3020 RMK AO2 LTG DSNT E AND SW T01730148
K6R3 
37nm N 
181555Z AUTO RMK TEMPORAIRILY INOPERATIVE
KBMT 
38nm NE 
181555Z AUTO 02006KT 10SM OVC023 18/15 A3021 RMK AO2 LTG DSNT SE T01800146
TAF
KEFD 
19nm SW 
181200Z 1812/1918 02006KT 9999 BKN030 QNH3009INS BECMG 1812/1813 03006KT 8000 BR OVC019 QNH3011INS BECMG 1817/1818 09006KT 4800 -SHRA SCT010 BKN030 QNH3013INS BECMG 1902/1903 13006KT 8000 BR OVC020 QNH3014INS BECMG 1905/1906 13006KT 6000 BR OVC010 QNH3009INS BECMG 1908/1909 14006KT 4800 BR OVC007 QNH3006INS BECMG 1911/1912 17006KT 3200 BR OVC005 QNH3004INS BECMG 1914/1915 17006KT 4800 BR OVC010 QNH3002INS BECMG 1916/1917 18006KT 8000 BR OVC020 QNH2999INS TX19/1820Z TN13/1812Z
KHOU 
24nm W 
181500Z 1815/1912 06008KT P6SM BKN025 OVC035 FM190300 10005KT 4SM BR OVC015 FM191000 11004KT 2SM -DZ BR OVC007
NOTAMs
Click for the latest NOTAMs
NOTAMs are issued by the DoD/FAA and will open in a separate window not controlled by AirNav.

 

 
 

FBO, Fuel Providers, and Aircraft Ground Support

  
 Business Name 
 
 Contact 
 
 Services / Description 
 
Fuel Prices
 
Comments
  
Bay Area Aviation 281-383-2320
no information available

If you are affiliated with Bay Area Aviation and would like to show here your services, contact info, web link, logo, and more, click here
100LL Jet A
SS $4.15 $2.65 
 Updated 18-Dec-2017
 
   write
SS=Self service
Update Fuel Prices
 

Would you like to see your business listed on this page?

 If your business provides an interesting product or service to pilots, flight crews, aircraft, or users of the RWJ Airpark, you should consider listing it here.  To start the listing process, click on the button below
 
Add a business
 

Other Pages about RWJ Airpark

Update a link
 
Copyright © AirNav, LLC. All rights reserved. Privacy Policy  Contact